Aviation Digital Data Service (ADDS)

Output produced by TAFs form (1147 UTC 27 May 2017)
found at http://www.aviationweather.gov/adds/tafs/
 
METAR text: RJDC 271100Z 01004KT 330V040 9999 FEW030 20/08 Q1012
Conditions at: RJDC (YAMAGUCHI/UBE AR, JP) observed 1100 UTC 27 May 2017
Temperature: 20.0°C (68°F)
Dewpoint: 8.0°C (46°F) [RH = 46%]
Pressure (altimeter): 29.88 inches Hg (1012.0 mb)
Winds: from the N (10 degrees) at 5 MPH (4 knots; 2.1 m/s)
Visibility: 6 or more miles (10+ km)
Ceiling: at least 12,000 feet AGL
Clouds: few clouds at 3000 feet AGL
Weather: no significant weather observed at this time